Wolcott, CO (81655)

10:48 AM MDT on July 07, 2015 (GMT -0600)
Edwards CO | | Change Station
CLOSE
Current Station
Personal Weather Station
Location: Edwards, CO
Elevation: 7152 ft
Nearby Weather Stations

Elev 7152 ft 39.65 °N, 106.63 °W | Updated 6 seconds ago

Overcast
Overcast
59.2 °F
Feels Like 59.2 °F
N
3.1
Wind Variable Wind from SE
Gusts 3.8 mph

Today
High -- | Low -- °F
--% Chance of Precip.
Yesterday
High -- | Low -- °F
Precip. -- in
5:45 AM 8:37 PM
Waning Gibbous, 63% visible
Pressure 30.27 in
Visibility 7.0 miles
Clouds Few 1500 ft
Mostly Cloudy 6500 ft
Dew Point 57 °F
Humidity 91%
Rainfall 0.25 in
Snow Depth Not available.
UV 4 out of 12
Pollen 4.80 out of 12
Air Quality Not available.
Flu Activity Not available.
METAR KEGE 071555Z 00000KT 7SM -RA BR FEW015 BKN065 14/13 A3027

More Conditions Fewer Conditions

Pressure 30.27 in
Visibility 7.0 miles
Clouds Few 1500 ft
Mostly Cloudy 6500 ft
Dew Point 57 °F
Humidity 91%
Rainfall 0.25 in
Snow Depth Not available.
UV 4 out of 12
Pollen 4.80 out of 12
Air Quality Not available.
Flu Activity Not available.
METAR KEGE 071555Z 00000KT 7SM -RA BR FEW015 BKN065 14/13 A3027

More Conditions Fewer Conditions

10-Day Weather Forecast

×

Almanac

Astronomy

Jul. 07, 2015 Rise Set
Actual Time
Civil Twilight
Nautical Twilight
Astronomical Twilight
Moon
Length of Visible Light
Length of Day
Tomorrow will be .
, % of the Moon is Illuminated

Today's Extremes

State Highs State Lows

Community

WunderPhotos

Upload Photos

1,835,849 photos uploaded!

WunderBlogs® & News

Nearby

Air Quality

  Air Quality AQ Index Pollutant
Not available.

Snow Depth

Station Depth Elevation

Earthquake Activity

City Distance Mag. Time & Date
Minimum magnitude displayed is 2.5.

Coastal Water Temperatures

Place Temperature

Stations

Nearby Weather Stations

Station Location Temp. Windchill Dew Point Humidity Wind Precip. Elev Updated Type